createdAt,value
2017-04-09T00:00:25.901Z,1020.47
2017-04-09T00:01:35.870Z,1020.46
2017-04-09T00:02:46.393Z,1020.45
2017-04-09T00:03:56.680Z,1020.44
2017-04-09T00:05:06.646Z,1020.43
2017-04-09T00:06:16.917Z,1020.44
2017-04-09T00:07:26.875Z,1020.45
2017-04-09T00:08:37.416Z,1020.42
2017-04-09T00:09:47.693Z,1020.44
2017-04-09T00:10:58.015Z,1020.41
2017-04-09T00:12:07.664Z,1020.41
2017-04-09T00:13:17.931Z,1020.43
2017-04-09T00:14:28.467Z,1020.38
2017-04-09T00:15:38.746Z,1020.42
2017-04-09T00:16:48.708Z,1020.43
2017-04-09T00:17:58.983Z,1020.43
2017-04-09T00:19:09.258Z,1020.45
2017-04-09T00:20:19.779Z,1020.43
2017-04-09T00:21:29.748Z,1020.45
2017-04-09T00:22:40.015Z,1020.47
2017-04-09T00:23:50.281Z,1020.5
2017-04-09T00:25:00.552Z,1020.52
2017-04-09T00:26:10.762Z,1020.5
2017-04-09T00:27:20.727Z,1020.49
2017-04-09T00:28:30.995Z,1020.53
2017-04-09T00:29:40.641Z,1020.5
2017-04-09T00:30:50.919Z,1020.51
2017-04-09T00:32:01.130Z,1020.5
2017-04-09T00:33:11.097Z,1020.51
2017-04-09T00:34:20.760Z,1020.49
2017-04-09T00:35:31.048Z,1020.52
2017-04-09T00:36:40.702Z,1020.51
2017-04-09T00:37:50.915Z,1020.45
2017-04-09T00:39:01.197Z,1020.49
2017-04-09T00:40:11.480Z,1020.49
2017-04-09T00:41:21.750Z,1020.5
2017-04-09T00:42:32.020Z,1020.48
2017-04-09T00:43:42.259Z,1020.49
2017-04-09T00:44:52.209Z,1020.5
2017-04-09T00:46:02.181Z,1020.51
2017-04-09T00:47:12.482Z,1020.51
2017-04-09T00:48:22.753Z,1020.53
2017-04-09T00:49:33.272Z,1020.55
2017-04-09T00:50:43.543Z,1020.56
2017-04-09T00:51:53.511Z,1020.56
2017-04-09T00:53:03.786Z,1020.58
2017-04-09T00:54:14.407Z,1020.59
2017-04-09T00:55:24.634Z,1020.57
2017-04-09T00:56:34.654Z,1020.58
2017-04-09T00:57:44.934Z,1020.59
2017-04-09T00:58:54.903Z,1020.56
2017-04-09T01:00:05.186Z,1020.58
2017-04-09T01:01:15.726Z,1020.58
2017-04-09T01:02:26.000Z,1020.56
2017-04-09T01:03:36.275Z,1020.57
2017-04-09T01:04:46.249Z,1020.56
2017-04-09T01:05:56.216Z,1020.57
2017-04-09T01:07:06.747Z,1020.54
2017-04-09T01:08:17.031Z,1020.56
2017-04-09T01:09:27.311Z,1020.52
2017-04-09T01:10:37.595Z,1020.55
2017-04-09T01:11:47.878Z,1020.55
2017-04-09T01:12:58.400Z,1020.54
2017-04-09T01:14:08.693Z,1020.54
2017-04-09T01:15:18.658Z,1020.52
2017-04-09T01:16:28.926Z,1020.55
2017-04-09T01:17:39.206Z,1020.48
2017-04-09T01:18:49.421Z,1020.53
2017-04-09T01:19:59.691Z,1020.57
2017-04-09T01:21:09.966Z,1020.55
2017-04-09T01:22:20.238Z,1020.53
2017-04-09T01:23:30.514Z,1020.55
2017-04-09T01:24:41.037Z,1020.56
2017-04-09T01:25:51.310Z,1020.56
2017-04-09T01:27:00.955Z,1020.52
2017-04-09T01:28:10.918Z,1020.54
2017-04-09T01:29:20.884Z,1020.52
2017-04-09T01:30:30.783Z,1020.54
2017-04-09T01:31:40.773Z,1020.51
2017-04-09T01:32:51.053Z,1020.53
2017-04-09T01:34:01.011Z,1020.49
2017-04-09T01:35:11.318Z,1020.52
2017-04-09T01:36:21.843Z,1020.54
2017-04-09T01:37:31.807Z,1020.51
2017-04-09T01:38:41.459Z,1020.48
2017-04-09T01:39:51.113Z,1020.5
2017-04-09T01:41:01.390Z,1020.5
2017-04-09T01:42:11.973Z,1020.5
2017-04-09T01:43:22.246Z,1020.49
2017-04-09T01:44:31.918Z,1020.49
2017-04-09T01:45:41.880Z,1020.48
2017-04-09T01:46:52.151Z,1020.47
2017-04-09T01:48:02.360Z,1020.44
2017-04-09T01:49:12.630Z,1020.42
2017-04-09T01:50:22.593Z,1020.43
2017-04-09T01:51:32.874Z,1020.42
2017-04-09T01:52:43.145Z,1020.4
2017-04-09T01:53:53.052Z,1020.41
2017-04-09T01:55:03.021Z,1020.44
2017-04-09T01:56:13.295Z,1020.44
2017-04-09T01:57:23.574Z,1020.42
2017-04-09T01:58:33.843Z,1020.45
2017-04-09T01:59:44.056Z,1020.44
2017-04-09T02:00:54.337Z,1020.46
2017-04-09T02:02:04.603Z,1020.46
2017-04-09T02:03:14.563Z,1020.45
2017-04-09T02:04:24.836Z,1020.44
2017-04-09T02:05:35.055Z,1020.45
2017-04-09T02:06:45.328Z,1020.41
2017-04-09T02:07:55.291Z,1020.44
2017-04-09T02:09:05.569Z,1020.48
2017-04-09T02:10:15.850Z,1020.46
2017-04-09T02:11:26.376Z,1020.45
2017-04-09T02:12:36.642Z,1020.47
2017-04-09T02:13:46.607Z,1020.43
2017-04-09T02:14:56.873Z,1020.48
2017-04-09T02:16:07.141Z,1020.47
2017-04-09T02:17:17.047Z,1020.44
2017-04-09T02:18:27.000Z,1020.46
2017-04-09T02:19:36.982Z,1020.49
2017-04-09T02:20:46.638Z,1020.45
2017-04-09T02:21:56.909Z,1020.51
2017-04-09T02:23:07.181Z,1020.51
2017-04-09T02:24:17.452Z,1020.47
2017-04-09T02:25:27.712Z,1020.52
2017-04-09T02:26:37.667Z,1020.51
2017-04-09T02:27:47.967Z,1020.52
2017-04-09T02:28:58.485Z,1020.48
2017-04-09T02:30:08.764Z,1020.49
2017-04-09T02:31:19.032Z,1020.51
2017-04-09T02:32:29.311Z,1020.47
2017-04-09T02:33:39.595Z,1020.47
2017-04-09T02:34:50.170Z,1020.51
2017-04-09T02:36:00.448Z,1020.49
2017-04-09T02:37:10.094Z,1020.49
2017-04-09T02:38:20.063Z,1020.49
2017-04-09T02:39:30.341Z,1020.49
2017-04-09T02:40:40.864Z,1020.49
2017-04-09T02:41:51.133Z,1020.48
2017-04-09T02:43:01.410Z,1020.51
2017-04-09T02:44:11.678Z,1020.49
2017-04-09T02:45:21.955Z,1020.48
2017-04-09T02:46:32.167Z,1020.48
2017-04-09T02:47:42.144Z,1020.46
2017-04-09T02:48:52.100Z,1020.44
2017-04-09T02:50:02.388Z,1020.48
2017-04-09T02:51:12.364Z,1020.49
2017-04-09T02:52:22.930Z,1020.5
2017-04-09T02:53:33.214Z,1020.51
2017-04-09T02:54:43.170Z,1020.49
2017-04-09T02:55:53.435Z,1020.46
2017-04-09T02:57:03.395Z,1020.5
2017-04-09T02:58:13.607Z,1020.49
2017-04-09T02:59:23.885Z,1020.46
2017-04-09T03:00:33.838Z,1020.48
2017-04-09T03:01:44.117Z,1020.49
2017-04-09T03:02:54.397Z,1020.47
2017-04-09T03:04:04.928Z,1020.43
2017-04-09T03:05:15.200Z,1020.43
2017-04-09T03:06:25.478Z,1020.42
2017-04-09T03:07:35.748Z,1020.5
2017-04-09T03:08:45.707Z,1020.48
2017-04-09T03:09:55.938Z,1020.48
2017-04-09T03:11:05.906Z,1020.46
2017-04-09T03:12:16.182Z,1020.49
2017-04-09T03:13:25.820Z,1020.52
2017-04-09T03:14:35.784Z,1020.46
2017-04-09T03:15:46.370Z,1020.47
2017-04-09T03:16:56.652Z,1020.48
2017-04-09T03:18:05.996Z,1020.45
2017-04-09T03:19:16.254Z,1020.47
2017-04-09T03:20:26.535Z,1020.45
2017-04-09T03:21:37.084Z,1020.46
2017-04-09T03:22:46.729Z,1020.44
2017-04-09T03:23:57.008Z,1020.46
2017-04-09T03:25:07.289Z,1020.44
2017-04-09T03:26:17.253Z,1020.45
2017-04-09T03:27:27.817Z,1020.43
2017-04-09T03:28:38.106Z,1020.41
2017-04-09T03:29:48.375Z,1020.43
2017-04-09T03:30:58.655Z,1020.48
2017-04-09T03:32:08.926Z,1020.41
2017-04-09T03:33:18.841Z,1020.43
2017-04-09T03:34:29.112Z,1020.42
2017-04-09T03:35:39.393Z,1020.41
2017-04-09T03:36:49.668Z,1020.38
2017-04-09T03:37:59.940Z,1020.41
2017-04-09T03:39:09.532Z,1020.39
2017-04-09T03:40:19.806Z,1020.4
2017-04-09T03:41:30.097Z,1020.4
2017-04-09T03:42:40.353Z,1020.37
2017-04-09T03:43:50.321Z,1020.38
2017-04-09T03:45:00.851Z,1020.41
2017-04-09T03:46:10.818Z,1020.4
2017-04-09T03:47:21.087Z,1020.42
2017-04-09T03:48:31.363Z,1020.42
2017-04-09T03:49:41.334Z,1020.41
2017-04-09T03:50:51.847Z,1020.43
2017-04-09T03:52:02.119Z,1020.44
2017-04-09T03:53:12.380Z,1020.45
2017-04-09T03:54:22.346Z,1020.43
2017-04-09T03:55:32.604Z,1020.42
2017-04-09T03:56:43.123Z,1020.41
2017-04-09T03:57:53.393Z,1020.45
2017-04-09T03:59:03.673Z,1020.42
2017-04-09T04:00:13.939Z,1020.46
2017-04-09T04:01:24.211Z,1020.48
2017-04-09T04:02:34.427Z,1020.47
2017-04-09T04:03:44.080Z,1020.48
2017-04-09T04:04:54.048Z,1020.47
2017-04-09T04:06:04.311Z,1020.45
2017-04-09T04:07:14.586Z,1020.48
2017-04-09T04:08:25.153Z,1020.44
2017-04-09T04:09:35.445Z,1020.45
2017-04-09T04:10:45.416Z,1020.44
2017-04-09T04:11:55.380Z,1020.47
2017-04-09T04:13:05.660Z,1020.42
2017-04-09T04:14:15.919Z,1020.44
2017-04-09T04:15:26.186Z,1020.44
2017-04-09T04:16:36.148Z,1020.45
2017-04-09T04:17:46.420Z,1020.46
2017-04-09T04:18:56.076Z,1020.49
2017-04-09T04:20:06.613Z,1020.51
2017-04-09T04:21:16.582Z,1020.52
2017-04-09T04:22:26.538Z,1020.49
2017-04-09T04:23:36.493Z,1020.52
2017-04-09T04:24:46.760Z,1020.5
2017-04-09T04:25:57.331Z,1020.54
2017-04-09T04:27:07.607Z,1020.51
2017-04-09T04:28:17.886Z,1020.52
2017-04-09T04:29:28.149Z,1020.52
2017-04-09T04:30:37.807Z,1020.51
2017-04-09T04:31:48.336Z,1020.54
2017-04-09T04:32:58.610Z,1020.48
2017-04-09T04:34:08.262Z,1020.44
2017-04-09T04:35:18.225Z,1020.42
2017-04-09T04:36:28.512Z,1020.45
2017-04-09T04:37:38.716Z,1020.41
2017-04-09T04:38:48.991Z,1020.47
2017-04-09T04:39:59.277Z,1020.52
2017-04-09T04:41:09.555Z,1020.59
2017-04-09T04:42:19.828Z,1020.57
2017-04-09T04:43:30.409Z,1020.59
2017-04-09T04:44:40.693Z,1020.59
2017-04-09T04:45:50.977Z,1020.62
2017-04-09T04:47:00.938Z,1020.62
2017-04-09T04:48:11.214Z,1020.64
2017-04-09T04:49:21.754Z,1020.63
2017-04-09T04:50:31.404Z,1020.65
2017-04-09T04:51:41.678Z,1020.62
2017-04-09T04:52:51.653Z,1020.62
2017-04-09T04:54:01.933Z,1020.62
2017-04-09T04:55:12.460Z,1020.6
2017-04-09T04:56:22.108Z,1020.63
2017-04-09T04:57:32.069Z,1020.64
2017-04-09T04:58:42.360Z,1020.65
2017-04-09T04:59:52.648Z,1020.65
2017-04-09T05:01:03.229Z,1020.62
2017-04-09T05:02:13.185Z,1020.68
2017-04-09T05:03:23.466Z,1020.69
2017-04-09T05:04:33.736Z,1020.69
2017-04-09T05:05:44.007Z,1020.75
2017-04-09T05:06:54.581Z,1020.7
2017-04-09T05:08:04.551Z,1020.72
2017-04-09T05:09:14.201Z,1020.72
2017-04-09T05:10:24.164Z,1020.73
2017-04-09T05:11:34.446Z,1020.75
2017-04-09T05:12:44.972Z,1020.71
2017-04-09T05:13:55.253Z,1020.77
2017-04-09T05:15:05.529Z,1020.75
2017-04-09T05:16:15.174Z,1020.76
2017-04-09T05:17:25.138Z,1020.75
2017-04-09T05:18:35.672Z,1020.78
2017-04-09T05:19:45.957Z,1020.77
2017-04-09T05:20:56.231Z,1020.77
2017-04-09T05:22:06.497Z,1020.79
2017-04-09T05:23:16.770Z,1020.77
2017-04-09T05:24:27.289Z,1020.83
2017-04-09T05:25:37.567Z,1020.85
2017-04-09T05:26:47.835Z,1020.87
2017-04-09T05:27:58.101Z,1020.84
2017-04-09T05:29:07.755Z,1020.87
2017-04-09T05:30:18.323Z,1020.81
2017-04-09T05:31:28.595Z,1020.84
2017-04-09T05:32:38.863Z,1020.81
2017-04-09T05:33:49.163Z,1020.8
2017-04-09T05:34:59.426Z,1020.81
2017-04-09T05:36:09.633Z,1020.84
2017-04-09T05:37:19.593Z,1020.75
2017-04-09T05:38:29.867Z,1020.8
2017-04-09T05:39:39.826Z,1020.81
2017-04-09T05:40:49.787Z,1020.86
2017-04-09T05:42:00.313Z,1020.81
2017-04-09T05:43:10.269Z,1020.82
2017-04-09T05:44:20.255Z,1020.79
2017-04-09T05:45:30.522Z,1020.81
2017-04-09T05:46:40.796Z,1020.83
2017-04-09T05:47:51.315Z,1020.82
2017-04-09T05:49:01.610Z,1020.82
2017-04-09T05:50:11.879Z,1020.84
2017-04-09T05:51:21.830Z,1020.82
2017-04-09T05:52:32.099Z,1020.86
2017-04-09T05:53:42.315Z,1020.87
2017-04-09T05:54:52.588Z,1020.92
2017-04-09T05:56:02.858Z,1020.96
2017-04-09T05:57:13.132Z,1020.9
2017-04-09T05:58:23.391Z,1020.87
2017-04-09T05:59:33.913Z,1020.88
2017-04-09T06:00:43.880Z,1020.9
2017-04-09T06:01:53.849Z,1020.89
2017-04-09T06:03:04.169Z,1020.91
2017-04-09T06:04:13.514Z,1021.01
2017-04-09T06:05:24.034Z,1021.04
2017-04-09T06:06:33.999Z,1021.04
2017-04-09T06:07:43.978Z,1021.01
2017-04-09T06:08:54.259Z,1020.99
2017-04-09T06:10:04.227Z,1020.98
2017-04-09T06:11:14.433Z,1021.04
2017-04-09T06:12:24.702Z,1021.02
2017-04-09T06:13:34.995Z,1021.04
2017-04-09T06:14:44.955Z,1021.05
2017-04-09T06:15:54.907Z,1021.09
2017-04-09T06:17:05.133Z,1021.05
2017-04-09T06:18:15.104Z,1021.07
2017-04-09T06:19:25.393Z,1021.07
2017-04-09T06:20:35.673Z,1021.07
2017-04-09T06:21:45.949Z,1021.04
2017-04-09T06:22:56.478Z,1021.06
2017-04-09T06:24:06.443Z,1021.12
2017-04-09T06:25:16.731Z,1021.07
2017-04-09T06:26:26.996Z,1021.08
2017-04-09T06:27:37.283Z,1021.08
2017-04-09T06:28:47.806Z,1021.08
2017-04-09T06:29:57.453Z,1021.07
2017-04-09T06:31:07.416Z,1021.09
2017-04-09T06:32:17.713Z,1021.08
2017-04-09T06:33:27.989Z,1021.09
2017-04-09T06:34:37.893Z,1021.05
2017-04-09T06:35:48.177Z,1021.08
2017-04-09T06:36:58.464Z,1021.04
2017-04-09T06:38:08.439Z,1021.08
2017-04-09T06:39:18.392Z,1021.06
2017-04-09T06:40:28.967Z,1021.08
2017-04-09T06:41:39.243Z,1021.03
2017-04-09T06:42:49.212Z,1021.08
2017-04-09T06:43:59.492Z,1021.08
2017-04-09T06:45:09.461Z,1021.06
2017-04-09T06:46:19.370Z,1021.08
2017-04-09T06:47:29.366Z,1021.08
2017-04-09T06:48:39.644Z,1021.14
2017-04-09T06:49:49.920Z,1021.14
2017-04-09T06:51:00.208Z,1021.1
2017-04-09T06:52:10.751Z,1021.12
2017-04-09T06:53:21.017Z,1021.14
2017-04-09T06:54:31.323Z,1021.17
2017-04-09T06:55:41.600Z,1021.18
2017-04-09T06:56:51.562Z,1021.19
2017-04-09T06:58:02.078Z,1021.23
2017-04-09T06:59:12.043Z,1021.18
2017-04-09T07:00:22.322Z,1021.25
2017-04-09T07:01:32.302Z,1021.25
2017-04-09T07:02:42.575Z,1021.25
2017-04-09T07:03:53.155Z,1021.18
2017-04-09T07:05:03.115Z,1021.28
2017-04-09T07:06:13.389Z,1021.25
2017-04-09T07:07:23.670Z,1021.25
2017-04-09T07:08:33.629Z,1021.22
2017-04-09T07:09:43.598Z,1021.25
2017-04-09T07:10:53.877Z,1021.26
2017-04-09T07:12:04.167Z,1021.32
2017-04-09T07:13:14.129Z,1021.36
2017-04-09T07:14:24.412Z,1021.31
2017-04-09T07:15:34.932Z,1021.38
2017-04-09T07:16:44.891Z,1021.39
2017-04-09T07:17:54.861Z,1021.33
2017-04-09T07:19:05.152Z,1021.36
2017-04-09T07:20:15.428Z,1021.35
2017-04-09T07:21:25.957Z,1021.38
2017-04-09T07:22:35.933Z,1021.35
2017-04-09T07:23:46.209Z,1021.42
2017-04-09T07:24:56.179Z,1021.38
2017-04-09T07:26:05.842Z,1021.35
2017-04-09T07:27:16.422Z,1021.38
2017-04-09T07:28:26.698Z,1021.36
2017-04-09T07:29:36.373Z,1021.37
2017-04-09T07:30:46.672Z,1021.4
2017-04-09T07:31:56.630Z,1021.36
2017-04-09T07:33:07.156Z,1021.42
2017-04-09T07:34:17.432Z,1021.45
2017-04-09T07:35:27.402Z,1021.44
2017-04-09T07:36:37.675Z,1021.41
2017-04-09T07:37:47.944Z,1021.39
2017-04-09T07:38:58.579Z,1021.4
2017-04-09T07:40:08.227Z,1021.39
2017-04-09T07:41:18.504Z,1021.39
2017-04-09T07:42:28.778Z,1021.4
2017-04-09T07:43:39.057Z,1021.41
2017-04-09T07:44:49.613Z,1021.36
2017-04-09T07:45:59.595Z,1021.39
2017-04-09T07:47:09.253Z,1021.4
2017-04-09T07:48:19.546Z,1021.39
2017-04-09T07:49:29.827Z,1021.37
2017-04-09T07:50:40.402Z,1021.39
2017-04-09T07:51:50.678Z,1021.37
2017-04-09T07:53:00.957Z,1021.42
2017-04-09T07:54:11.259Z,1021.39
2017-04-09T07:55:21.527Z,1021.43
2017-04-09T07:56:31.753Z,1021.42
2017-04-09T07:57:42.029Z,1021.41
2017-04-09T07:58:52.315Z,1021.43
2017-04-09T08:00:02.603Z,1021.4
2017-04-09T08:01:12.892Z,1021.43
2017-04-09T08:02:23.423Z,1021.43
2017-04-09T08:03:33.704Z,1021.42
2017-04-09T08:04:43.993Z,1021.43
2017-04-09T08:05:54.295Z,1021.44
2017-04-09T08:07:04.605Z,1021.41
2017-04-09T08:08:15.131Z,1021.42
2017-04-09T08:09:25.105Z,1021.4
2017-04-09T08:10:35.378Z,1021.42
2017-04-09T08:11:45.655Z,1021.44
2017-04-09T08:12:55.623Z,1021.44
2017-04-09T08:14:06.163Z,1021.47
2017-04-09T08:15:16.447Z,1021.48
2017-04-09T08:16:26.729Z,1021.44
2017-04-09T08:17:36.697Z,1021.45
2017-04-09T08:18:46.976Z,1021.51
2017-04-09T08:19:57.503Z,1021.45
2017-04-09T08:21:07.471Z,1021.47
2017-04-09T08:22:17.746Z,1021.45
2017-04-09T08:23:28.024Z,1021.51
2017-04-09T08:24:38.003Z,1021.55
2017-04-09T08:25:48.213Z,1021.5
2017-04-09T08:26:58.487Z,1021.5
2017-04-09T08:28:08.770Z,1021.49
2017-04-09T08:29:19.046Z,1021.52
2017-04-09T08:30:29.351Z,1021.53
2017-04-09T08:31:39.938Z,1021.47
2017-04-09T08:32:50.214Z,1021.48
2017-04-09T08:33:59.871Z,1021.48
2017-04-09T08:35:10.170Z,1021.48
2017-04-09T08:36:20.148Z,1021.48
2017-04-09T08:37:30.062Z,1021.48
2017-04-09T08:38:40.342Z,1021.47
2017-04-09T08:39:50.626Z,1021.45
2017-04-09T08:41:00.589Z,1021.44
2017-04-09T08:42:10.879Z,1021.44
2017-04-09T08:43:21.452Z,1021.41
2017-04-09T08:44:31.101Z,1021.46
2017-04-09T08:45:41.071Z,1021.43
2017-04-09T08:46:51.349Z,1021.4
2017-04-09T08:48:01.351Z,1021.47
2017-04-09T08:49:11.869Z,1021.45
2017-04-09T08:50:22.161Z,1021.41
2017-04-09T08:51:32.143Z,1021.42
2017-04-09T08:52:42.113Z,1021.41
2017-04-09T08:53:52.388Z,1021.43
2017-04-09T08:55:02.646Z,1021.43
2017-04-09T08:56:12.942Z,1021.45
2017-04-09T08:57:22.907Z,1021.39
2017-04-09T08:58:33.201Z,1021.42
2017-04-09T08:59:43.179Z,1021.4
2017-04-09T09:00:53.750Z,1021.39
2017-04-09T09:02:04.040Z,1021.39
2017-04-09T09:03:14.342Z,1021.4
2017-04-09T09:04:24.624Z,1021.41
2017-04-09T09:05:34.911Z,1021.43
2017-04-09T09:06:45.454Z,1021.4
2017-04-09T09:07:55.114Z,1021.37
2017-04-09T09:09:05.405Z,1021.38
2017-04-09T09:10:15.397Z,1021.39
2017-04-09T09:11:25.055Z,1021.39
2017-04-09T09:12:35.278Z,1021.44
2017-04-09T09:13:45.256Z,1021.45
2017-04-09T09:14:55.547Z,1021.41
2017-04-09T09:16:05.829Z,1021.39
2017-04-09T09:17:16.121Z,1021.39
2017-04-09T09:18:26.653Z,1021.37
2017-04-09T09:19:36.645Z,1021.4
2017-04-09T09:20:46.626Z,1021.37
2017-04-09T09:21:56.914Z,1021.41
2017-04-09T09:23:07.214Z,1021.37
2017-04-09T09:24:17.450Z,1021.36
2017-04-09T09:25:26.792Z,1021.37
2017-04-09T09:26:37.084Z,1021.34
2017-04-09T09:27:47.356Z,1021.34
2017-04-09T09:28:57.642Z,1021.32
2017-04-09T09:30:08.174Z,1021.31
2017-04-09T09:31:18.474Z,1021.34
2017-04-09T09:32:28.781Z,1021.33
2017-04-09T09:33:39.072Z,1021.36
2017-04-09T09:34:49.378Z,1021.36
2017-04-09T09:35:59.922Z,1021.35
2017-04-09T09:37:10.221Z,1021.36
2017-04-09T09:38:20.219Z,1021.35
2017-04-09T09:39:30.197Z,1021.34
2017-04-09T09:40:40.496Z,1021.33
2017-04-09T09:41:51.027Z,1021.34
2017-04-09T09:43:00.995Z,1021.34
2017-04-09T09:44:11.295Z,1021.37
2017-04-09T09:45:21.580Z,1021.34
2017-04-09T09:46:31.867Z,1021.35
2017-04-09T09:47:42.140Z,1021.38
2017-04-09T09:48:52.425Z,1021.37
2017-04-09T09:50:02.703Z,1021.38
2017-04-09T09:51:12.703Z,1021.31
2017-04-09T09:52:22.689Z,1021.31
2017-04-09T09:53:32.659Z,1021.33
2017-04-09T09:54:42.953Z,1021.29
2017-04-09T09:55:53.274Z,1021.28
2017-04-09T09:57:03.571Z,1021.29
2017-04-09T09:58:13.261Z,1021.28
2017-04-09T09:59:23.818Z,1021.27
2017-04-09T10:00:34.119Z,1021.28
2017-04-09T10:01:44.100Z,1021.24
2017-04-09T10:02:54.389Z,1021.25
2017-04-09T10:04:03.740Z,1021.21
2017-04-09T10:05:14.283Z,1021.2
2017-04-09T10:06:24.291Z,1021.18
2017-04-09T10:07:34.573Z,1021.17
2017-04-09T10:08:44.240Z,1021.15
2017-04-09T10:09:54.239Z,1021.15
2017-04-09T10:11:04.811Z,1021.14
2017-04-09T10:12:14.799Z,1021.12
2017-04-09T10:13:25.114Z,1021.14
2017-04-09T10:14:34.813Z,1021.14
2017-04-09T10:15:45.109Z,1021.13
2017-04-09T10:16:55.338Z,1021.1
2017-04-09T10:18:05.341Z,1021.08
2017-04-09T10:19:15.332Z,1021.11
2017-04-09T10:20:25.006Z,1021.1
2017-04-09T10:21:35.322Z,1021.1
2017-04-09T10:22:45.574Z,1021.1
2017-04-09T10:23:55.883Z,1021.11
2017-04-09T10:25:05.876Z,1021.07
2017-04-09T10:26:15.882Z,1021.06
2017-04-09T10:27:26.182Z,1021.06
2017-04-09T10:28:36.468Z,1021.06
2017-04-09T10:29:46.507Z,1021.02
2017-04-09T10:30:56.814Z,1021.02
2017-04-09T10:32:07.130Z,1021.02
2017-04-09T10:33:17.452Z,1021.06
2017-04-09T10:34:27.712Z,1021.08
2017-04-09T10:35:38.009Z,1021.05
2017-04-09T10:36:48.319Z,1021.03
2017-04-09T10:37:58.612Z,1021.01
2017-04-09T10:39:08.912Z,1021.03
2017-04-09T10:40:19.456Z,1020.99
2017-04-09T10:41:29.751Z,1020.97
2017-04-09T10:42:39.446Z,1020.92
2017-04-09T10:43:49.744Z,1020.89
2017-04-09T10:45:00.047Z,1020.93
2017-04-09T10:46:10.286Z,1020.92
2017-04-09T10:47:20.274Z,1020.91
2017-04-09T10:48:30.555Z,1020.92
2017-04-09T10:49:40.571Z,1020.91
2017-04-09T10:50:50.885Z,1020.87
2017-04-09T10:52:01.434Z,1020.89
2017-04-09T10:53:11.751Z,1020.88
2017-04-09T10:54:22.049Z,1020.85
2017-04-09T10:55:32.029Z,1020.84
2017-04-09T10:56:42.335Z,1020.84
2017-04-09T10:57:52.917Z,1020.83
2017-04-09T10:59:02.896Z,1020.8
2017-04-09T11:00:12.894Z,1020.8
2017-04-09T11:01:23.187Z,1020.82
2017-04-09T11:02:33.171Z,1020.76
2017-04-09T11:03:43.714Z,1020.8
2017-04-09T11:04:54.016Z,1020.8
2017-04-09T11:06:04.327Z,1020.78
2017-04-09T11:07:14.621Z,1020.79
2017-04-09T11:08:24.930Z,1020.75
2017-04-09T11:09:35.494Z,1020.69
2017-04-09T11:10:45.814Z,1020.7
2017-04-09T11:11:56.096Z,1020.69
2017-04-09T11:13:06.388Z,1020.67
2017-04-09T11:14:16.062Z,1020.71
2017-04-09T11:15:26.326Z,1020.73
2017-04-09T11:16:36.648Z,1020.73
2017-04-09T11:17:46.948Z,1020.74
2017-04-09T11:18:57.247Z,1020.74
2017-04-09T11:20:07.236Z,1020.74
2017-04-09T11:21:17.791Z,1020.75
2017-04-09T11:22:28.137Z,1020.74
2017-04-09T11:23:37.808Z,1020.73
2017-04-09T11:24:48.141Z,1020.69
2017-04-09T11:25:58.444Z,1020.61
2017-04-09T11:27:09.008Z,1020.63
2017-04-09T11:28:19.292Z,1020.64
2017-04-09T11:29:29.580Z,1020.6
2017-04-09T11:30:39.884Z,1020.6
2017-04-09T11:31:50.191Z,1020.59
2017-04-09T11:33:00.725Z,1020.57
2017-04-09T11:34:11.032Z,1020.57
2017-04-09T11:35:21.384Z,1020.55
2017-04-09T11:36:31.367Z,1020.53
2017-04-09T11:37:41.340Z,1020.55
2017-04-09T11:38:51.908Z,1020.52
2017-04-09T11:40:02.212Z,1020.51
2017-04-09T11:41:12.539Z,1020.55
2017-04-09T11:42:22.835Z,1020.53
2017-04-09T11:43:32.508Z,1020.49
2017-04-09T11:44:42.746Z,1020.52
2017-04-09T11:45:53.031Z,1020.56
2017-04-09T11:47:03.022Z,1020.5
2017-04-09T11:48:13.021Z,1020.52
2017-04-09T11:49:23.305Z,1020.54
2017-04-09T11:50:33.869Z,1020.55
2017-04-09T11:51:44.163Z,1020.53
2017-04-09T11:52:54.464Z,1020.53
2017-04-09T11:54:04.761Z,1020.47
2017-04-09T11:55:15.062Z,1020.47
2017-04-09T11:56:25.297Z,1020.47
2017-04-09T11:57:35.315Z,1020.46
2017-04-09T11:58:45.617Z,1020.42
2017-04-09T11:59:55.596Z,1020.43
2017-04-09T12:01:05.884Z,1020.41
2017-04-09T12:02:16.125Z,1020.41
2017-04-09T12:03:26.467Z,1020.37
2017-04-09T12:04:36.761Z,1020.4
2017-04-09T12:05:46.741Z,1020.32
2017-04-09T12:06:57.059Z,1020.31
2017-04-09T12:08:07.384Z,1020.29
2017-04-09T12:09:17.703Z,1020.25
2017-04-09T12:10:27.401Z,1020.26
2017-04-09T12:11:37.697Z,1020.24
2017-04-09T12:12:47.995Z,1020.26
2017-04-09T12:13:58.540Z,1020.24
2017-04-09T12:15:08.516Z,1020.2
2017-04-09T12:16:18.801Z,1020.23
2017-04-09T12:17:29.108Z,1020.14
2017-04-09T12:18:39.413Z,1020.1
2017-04-09T12:19:49.963Z,1020.12
2017-04-09T12:21:00.251Z,1020.07
2017-04-09T12:22:10.547Z,1020.08
2017-04-09T12:23:20.844Z,1020.07
2017-04-09T12:24:31.145Z,1020.05
2017-04-09T12:25:41.390Z,1020
2017-04-09T12:26:51.697Z,1020.04
2017-04-09T12:28:01.668Z,1020.02
2017-04-09T12:29:11.324Z,1019.96
2017-04-09T12:30:20.996Z,1020.01
2017-04-09T12:31:31.553Z,1019.93
2017-04-09T12:32:41.229Z,1019.99
2017-04-09T12:33:51.521Z,1019.99
2017-04-09T12:35:01.511Z,1019.93
2017-04-09T12:36:11.806Z,1019.95
2017-04-09T12:37:22.361Z,1019.93
2017-04-09T12:38:32.017Z,1019.87
2017-04-09T12:39:41.999Z,1019.9
2017-04-09T12:40:52.297Z,1019.88
2017-04-09T12:42:02.281Z,1019.85
2017-04-09T12:43:12.522Z,1019.82
2017-04-09T12:44:22.830Z,1019.83
2017-04-09T12:45:32.826Z,1019.88
2017-04-09T12:46:42.837Z,1019.8
2017-04-09T12:47:53.136Z,1019.83
2017-04-09T12:49:03.695Z,1019.8
2017-04-09T12:50:13.673Z,1019.78
2017-04-09T12:51:23.964Z,1019.78
2017-04-09T12:52:33.953Z,1019.78
2017-04-09T12:53:44.260Z,1019.78
2017-04-09T12:54:54.207Z,1019.77
2017-04-09T12:56:04.502Z,1019.73
2017-04-09T12:57:14.477Z,1019.76
2017-04-09T12:58:24.783Z,1019.77
2017-04-09T12:59:35.084Z,1019.75
2017-04-09T13:00:45.002Z,1019.76
2017-04-09T13:01:55.292Z,1019.73
2017-04-09T13:03:05.582Z,1019.76
2017-04-09T13:04:15.558Z,1019.71
2017-04-09T13:05:25.568Z,1019.73
2017-04-09T13:06:36.113Z,1019.75
2017-04-09T13:07:46.625Z,1019.74
2017-04-09T13:08:56.924Z,1019.75
2017-04-09T13:10:06.907Z,1019.71
2017-04-09T13:11:17.195Z,1019.74
2017-04-09T13:12:27.731Z,1019.75
2017-04-09T13:13:38.012Z,1019.78
2017-04-09T13:14:48.295Z,1019.74
2017-04-09T13:15:58.275Z,1019.74
2017-04-09T13:17:08.258Z,1019.72
2017-04-09T13:18:18.480Z,1019.71
2017-04-09T13:19:28.783Z,1019.69
2017-04-09T13:20:39.069Z,1019.68
2017-04-09T13:21:49.049Z,1019.65
2017-04-09T13:22:59.336Z,1019.63
2017-04-09T13:24:09.929Z,1019.62
2017-04-09T13:25:20.229Z,1019.66
2017-04-09T13:26:30.525Z,1019.62
2017-04-09T13:27:40.813Z,1019.61
2017-04-09T13:28:51.093Z,1019.57
2017-04-09T13:30:01.305Z,1019.63
2017-04-09T13:31:11.326Z,1019.58
2017-04-09T13:32:20.997Z,1019.6
2017-04-09T13:33:31.300Z,1019.59
2017-04-09T13:34:41.603Z,1019.56
2017-04-09T13:35:51.826Z,1019.53
2017-04-09T13:37:01.802Z,1019.51
2017-04-09T13:38:12.096Z,1019.51
2017-04-09T13:39:22.403Z,1019.47
2017-04-09T13:40:32.689Z,1019.46
2017-04-09T13:41:42.939Z,1019.48
2017-04-09T13:42:53.229Z,1019.5
2017-04-09T13:44:03.548Z,1019.48
2017-04-09T13:45:13.849Z,1019.5
2017-04-09T13:46:23.822Z,1019.44
2017-04-09T13:47:34.357Z,1019.44
2017-04-09T13:48:44.330Z,1019.4
2017-04-09T13:49:54.624Z,1019.4
2017-04-09T13:51:04.646Z,1019.36
2017-04-09T13:52:14.927Z,1019.32
2017-04-09T13:53:25.157Z,1019.36
2017-04-09T13:54:35.459Z,1019.38
2017-04-09T13:55:45.122Z,1019.35
2017-04-09T13:56:55.110Z,1019.37
2017-04-09T13:58:05.100Z,1019.33
2017-04-09T13:59:15.628Z,1019.32
2017-04-09T14:00:25.287Z,1019.29
2017-04-09T14:01:35.579Z,1019.3
2017-04-09T14:02:45.857Z,1019.3
2017-04-09T14:03:56.144Z,1019.29
2017-04-09T14:05:06.687Z,1019.3
2017-04-09T14:06:16.701Z,1019.3
2017-04-09T14:07:26.992Z,1019.3
2017-04-09T14:08:36.964Z,1019.28
2017-04-09T14:09:46.628Z,1019.26
2017-04-09T14:10:57.163Z,1019.27